sensor_id;sensor_type;location;lat;lon;timestamp;P1;durP1;ratioP1;P2;durP2;ratioP2
4468;SDS011;2247;42.666;23.292;2024-01-15T00:00:43;51.90;;;26.10;;
4468;SDS011;2247;42.666;23.292;2024-01-15T00:03:11;52.57;;;26.20;;
4468;SDS011;2247;42.666;23.292;2024-01-15T00:05:38;56.90;;;26.77;;
4468;SDS011;2247;42.666;23.292;2024-01-15T00:08:05;59.07;;;26.47;;
4468;SDS011;2247;42.666;23.292;2024-01-15T00:10:32;51.73;;;25.30;;
4468;SDS011;2247;42.666;23.292;2024-01-15T00:12:59;60.53;;;25.90;;
4468;SDS011;2247;42.666;23.292;2024-01-15T00:15:26;53.23;;;25.97;;
4468;SDS011;2247;42.666;23.292;2024-01-15T00:17:56;54.80;;;25.57;;
4468;SDS011;2247;42.666;23.292;2024-01-15T00:20:23;55.40;;;25.63;;
4468;SDS011;2247;42.666;23.292;2024-01-15T00:22:50;57.43;;;26.97;;
4468;SDS011;2247;42.666;23.292;2024-01-15T00:25:18;52.47;;;25.00;;
4468;SDS011;2247;42.666;23.292;2024-01-15T00:27:45;56.60;;;26.07;;
4468;SDS011;2247;42.666;23.292;2024-01-15T00:30:12;50.23;;;25.90;;
4468;SDS011;2247;42.666;23.292;2024-01-15T00:32:40;52.90;;;25.37;;
4468;SDS011;2247;42.666;23.292;2024-01-15T00:35:09;51.20;;;25.17;;
4468;SDS011;2247;42.666;23.292;2024-01-15T00:37:36;58.53;;;27.03;;
4468;SDS011;2247;42.666;23.292;2024-01-15T00:40:03;53.33;;;26.03;;
4468;SDS011;2247;42.666;23.292;2024-01-15T00:42:31;57.60;;;26.47;;
4468;SDS011;2247;42.666;23.292;2024-01-15T00:44:58;51.20;;;26.67;;
4468;SDS011;2247;42.666;23.292;2024-01-15T00:47:25;54.13;;;27.87;;
4468;SDS011;2247;42.666;23.292;2024-01-15T00:49:52;56.00;;;27.73;;
4468;SDS011;2247;42.666;23.292;2024-01-15T00:52:21;57.73;;;26.67;;
4468;SDS011;2247;42.666;23.292;2024-01-15T00:54:48;48.77;;;24.10;;
4468;SDS011;2247;42.666;23.292;2024-01-15T00:57:16;46.43;;;24.03;;
4468;SDS011;2247;42.666;23.292;2024-01-15T00:59:44;49.67;;;23.73;;
4468;SDS011;2247;42.666;23.292;2024-01-15T01:02:12;54.00;;;24.27;;
4468;SDS011;2247;42.666;23.292;2024-01-15T01:04:40;49.73;;;23.93;;
4468;SDS011;2247;42.666;23.292;2024-01-15T01:07:07;53.30;;;25.07;;
4468;SDS011;2247;42.666;23.292;2024-01-15T01:09:35;53.83;;;26.20;;
4468;SDS011;2247;42.666;23.292;2024-01-15T01:12:02;51.80;;;25.10;;
4468;SDS011;2247;42.666;23.292;2024-01-15T01:14:29;52.83;;;25.23;;
4468;SDS011;2247;42.666;23.292;2024-01-15T01:16:56;52.63;;;23.50;;
4468;SDS011;2247;42.666;23.292;2024-01-15T01:19:23;53.73;;;23.47;;
4468;SDS011;2247;42.666;23.292;2024-01-15T01:21:51;49.90;;;23.93;;
4468;SDS011;2247;42.666;23.292;2024-01-15T01:24:18;47.63;;;24.23;;
4468;SDS011;2247;42.666;23.292;2024-01-15T01:26:46;45.97;;;22.23;;
4468;SDS011;2247;42.666;23.292;2024-01-15T01:29:14;40.50;;;21.27;;
4468;SDS011;2247;42.666;23.292;2024-01-15T01:31:44;41.17;;;20.17;;
4468;SDS011;2247;42.666;23.292;2024-01-15T01:34:13;41.57;;;20.53;;
4468;SDS011;2247;42.666;23.292;2024-01-15T01:36:41;39.37;;;20.00;;
4468;SDS011;2247;42.666;23.292;2024-01-15T01:39:08;43.53;;;20.73;;
4468;SDS011;2247;42.666;23.292;2024-01-15T01:41:35;36.60;;;18.30;;
4468;SDS011;2247;42.666;23.292;2024-01-15T01:44:04;39.30;;;18.73;;
4468;SDS011;2247;42.666;23.292;2024-01-15T01:46:31;39.70;;;18.00;;
4468;SDS011;2247;42.666;23.292;2024-01-15T01:48:58;38.57;;;17.70;;
4468;SDS011;2247;42.666;23.292;2024-01-15T01:51:30;37.20;;;17.70;;
4468;SDS011;2247;42.666;23.292;2024-01-15T01:53:58;35.63;;;18.37;;
4468;SDS011;2247;42.666;23.292;2024-01-15T01:56:25;35.37;;;16.13;;
4468;SDS011;2247;42.666;23.292;2024-01-15T01:58:53;27.43;;;14.33;;
4468;SDS011;2247;42.666;23.292;2024-01-15T02:01:21;23.97;;;13.20;;
4468;SDS011;2247;42.666;23.292;2024-01-15T02:03:48;32.33;;;13.80;;
4468;SDS011;2247;42.666;23.292;2024-01-15T02:06:15;24.20;;;12.70;;
4468;SDS011;2247;42.666;23.292;2024-01-15T02:08:42;27.30;;;12.67;;
4468;SDS011;2247;42.666;23.292;2024-01-15T02:11:10;26.30;;;13.53;;
4468;SDS011;2247;42.666;23.292;2024-01-15T02:13:38;23.53;;;12.80;;
4468;SDS011;2247;42.666;23.292;2024-01-15T02:16:05;27.10;;;13.17;;
4468;SDS011;2247;42.666;23.292;2024-01-15T02:18:41;31.50;;;13.90;;
4468;SDS011;2247;42.666;23.292;2024-01-15T02:21:08;25.60;;;13.90;;
4468;SDS011;2247;42.666;23.292;2024-01-15T02:23:37;30.87;;;13.87;;
4468;SDS011;2247;42.666;23.292;2024-01-15T02:26:04;29.40;;;13.93;;
4468;SDS011;2247;42.666;23.292;2024-01-15T02:28:32;27.10;;;14.50;;
4468;SDS011;2247;42.666;23.292;2024-01-15T02:31:00;28.17;;;13.83;;
4468;SDS011;2247;42.666;23.292;2024-01-15T02:33:27;27.63;;;14.40;;
4468;SDS011;2247;42.666;23.292;2024-01-15T02:35:54;31.37;;;15.83;;
4468;SDS011;2247;42.666;23.292;2024-01-15T02:38:21;33.53;;;15.17;;
4468;SDS011;2247;42.666;23.292;2024-01-15T02:40:50;40.50;;;18.63;;
4468;SDS011;2247;42.666;23.292;2024-01-15T02:43:17;36.77;;;17.67;;
4468;SDS011;2247;42.666;23.292;2024-01-15T02:45:45;35.80;;;16.30;;
4468;SDS011;2247;42.666;23.292;2024-01-15T02:48:12;36.37;;;16.90;;
4468;SDS011;2247;42.666;23.292;2024-01-15T02:50:39;31.40;;;15.17;;
4468;SDS011;2247;42.666;23.292;2024-01-15T02:53:06;29.80;;;14.97;;
4468;SDS011;2247;42.666;23.292;2024-01-15T02:55:33;31.87;;;15.20;;
4468;SDS011;2247;42.666;23.292;2024-01-15T02:58:01;31.80;;;15.43;;
4468;SDS011;2247;42.666;23.292;2024-01-15T03:00:29;28.43;;;13.77;;
4468;SDS011;2247;42.666;23.292;2024-01-15T03:02:56;31.50;;;14.60;;
4468;SDS011;2247;42.666;23.292;2024-01-15T03:05:23;26.97;;;13.73;;
4468;SDS011;2247;42.666;23.292;2024-01-15T03:07:50;30.00;;;14.63;;
4468;SDS011;2247;42.666;23.292;2024-01-15T03:10:17;28.47;;;13.97;;
4468;SDS011;2247;42.666;23.292;2024-01-15T03:12:44;31.67;;;14.20;;
4468;SDS011;2247;42.666;23.292;2024-01-15T03:15:12;38.63;;;14.80;;
4468;SDS011;2247;42.666;23.292;2024-01-15T03:17:40;26.40;;;14.50;;
4468;SDS011;2247;42.666;23.292;2024-01-15T03:20:08;28.40;;;15.00;;
4468;SDS011;2247;42.666;23.292;2024-01-15T03:22:36;27.67;;;14.03;;
4468;SDS011;2247;42.666;23.292;2024-01-15T03:25:03;32.67;;;15.20;;
4468;SDS011;2247;42.666;23.292;2024-01-15T03:27:30;32.00;;;15.63;;
4468;SDS011;2247;42.666;23.292;2024-01-15T03:29:57;35.43;;;16.50;;
4468;SDS011;2247;42.666;23.292;2024-01-15T03:32:26;41.10;;;19.67;;
4468;SDS011;2247;42.666;23.292;2024-01-15T03:34:53;37.90;;;19.90;;
4468;SDS011;2247;42.666;23.292;2024-01-15T03:37:20;39.83;;;20.30;;
4468;SDS011;2247;42.666;23.292;2024-01-15T03:39:47;43.87;;;21.67;;
4468;SDS011;2247;42.666;23.292;2024-01-15T03:42:15;37.97;;;18.90;;
4468;SDS011;2247;42.666;23.292;2024-01-15T03:44:42;40.43;;;20.20;;
4468;SDS011;2247;42.666;23.292;2024-01-15T03:47:09;50.17;;;22.87;;
4468;SDS011;2247;42.666;23.292;2024-01-15T03:49:38;50.73;;;23.10;;
4468;SDS011;2247;42.666;23.292;2024-01-15T03:52:05;45.90;;;22.27;;
4468;SDS011;2247;42.666;23.292;2024-01-15T03:54:33;37.40;;;19.87;;
4468;SDS011;2247;42.666;23.292;2024-01-15T03:57:00;43.97;;;20.57;;
4468;SDS011;2247;42.666;23.292;2024-01-15T03:59:27;35.87;;;18.83;;
4468;SDS011;2247;42.666;23.292;2024-01-15T04:01:54;40.50;;;19.00;;
4468;SDS011;2247;42.666;23.292;2024-01-15T04:04:21;38.03;;;18.37;;
4468;SDS011;2247;42.666;23.292;2024-01-15T04:06:51;38.37;;;20.10;;
4468;SDS011;2247;42.666;23.292;2024-01-15T04:09:18;55.10;;;23.93;;
4468;SDS011;2247;42.666;23.292;2024-01-15T04:11:45;49.17;;;24.33;;
4468;SDS011;2247;42.666;23.292;2024-01-15T04:14:11;50.30;;;26.20;;
4468;SDS011;2247;42.666;23.292;2024-01-15T04:16:39;56.63;;;28.70;;
4468;SDS011;2247;42.666;23.292;2024-01-15T04:19:06;61.10;;;31.40;;
4468;SDS011;2247;42.666;23.292;2024-01-15T04:21:33;74.17;;;34.43;;
4468;SDS011;2247;42.666;23.292;2024-01-15T04:24:02;85.37;;;40.87;;
4468;SDS011;2247;42.666;23.292;2024-01-15T04:26:29;85.97;;;41.03;;
4468;SDS011;2247;42.666;23.292;2024-01-15T04:28:56;78.90;;;39.43;;
4468;SDS011;2247;42.666;23.292;2024-01-15T04:31:24;83.60;;;38.57;;
4468;SDS011;2247;42.666;23.292;2024-01-15T04:33:52;78.53;;;36.30;;
4468;SDS011;2247;42.666;23.292;2024-01-15T04:36:19;78.23;;;38.57;;
4468;SDS011;2247;42.666;23.292;2024-01-15T04:38:46;80.80;;;39.60;;
4468;SDS011;2247;42.666;23.292;2024-01-15T04:41:14;75.13;;;34.90;;
4468;SDS011;2247;42.666;23.292;2024-01-15T04:43:42;70.93;;;35.07;;
4468;SDS011;2247;42.666;23.292;2024-01-15T04:46:09;66.23;;;31.70;;
4468;SDS011;2247;42.666;23.292;2024-01-15T04:48:36;64.10;;;30.97;;
4468;SDS011;2247;42.666;23.292;2024-01-15T04:51:04;59.33;;;30.50;;
4468;SDS011;2247;42.666;23.292;2024-01-15T04:53:32;64.67;;;30.73;;
4468;SDS011;2247;42.666;23.292;2024-01-15T04:56:01;52.20;;;26.47;;
4468;SDS011;2247;42.666;23.292;2024-01-15T04:58:29;51.37;;;24.53;;
4468;SDS011;2247;42.666;23.292;2024-01-15T05:00:56;53.80;;;25.40;;
4468;SDS011;2247;42.666;23.292;2024-01-15T05:03:23;45.50;;;22.97;;
4468;SDS011;2247;42.666;23.292;2024-01-15T05:05:50;54.43;;;25.27;;
4468;SDS011;2247;42.666;23.292;2024-01-15T05:08:17;52.47;;;25.87;;
4468;SDS011;2247;42.666;23.292;2024-01-15T05:10:44;57.83;;;25.73;;
4468;SDS011;2247;42.666;23.292;2024-01-15T05:13:11;58.53;;;27.63;;
4468;SDS011;2247;42.666;23.292;2024-01-15T05:15:39;66.60;;;31.10;;
4468;SDS011;2247;42.666;23.292;2024-01-15T05:18:06;73.90;;;34.13;;
4468;SDS011;2247;42.666;23.292;2024-01-15T05:20:33;71.87;;;34.63;;
4468;SDS011;2247;42.666;23.292;2024-01-15T05:23:00;66.37;;;32.60;;
4468;SDS011;2247;42.666;23.292;2024-01-15T05:25:27;76.80;;;34.53;;
4468;SDS011;2247;42.666;23.292;2024-01-15T05:27:54;74.70;;;34.33;;
4468;SDS011;2247;42.666;23.292;2024-01-15T05:30:21;72.67;;;34.57;;
4468;SDS011;2247;42.666;23.292;2024-01-15T05:32:50;79.13;;;35.80;;
4468;SDS011;2247;42.666;23.292;2024-01-15T05:35:16;75.20;;;36.30;;
4468;SDS011;2247;42.666;23.292;2024-01-15T05:37:44;65.00;;;32.03;;
4468;SDS011;2247;42.666;23.292;2024-01-15T05:40:12;66.67;;;32.67;;
4468;SDS011;2247;42.666;23.292;2024-01-15T05:42:39;64.93;;;31.90;;
4468;SDS011;2247;42.666;23.292;2024-01-15T05:45:06;70.60;;;33.20;;
4468;SDS011;2247;42.666;23.292;2024-01-15T05:47:34;71.10;;;34.07;;
4468;SDS011;2247;42.666;23.292;2024-01-15T05:50:02;75.03;;;35.40;;
4468;SDS011;2247;42.666;23.292;2024-01-15T05:52:30;75.90;;;36.20;;
4468;SDS011;2247;42.666;23.292;2024-01-15T05:54:57;74.80;;;35.30;;
4468;SDS011;2247;42.666;23.292;2024-01-15T05:57:24;70.33;;;35.10;;
4468;SDS011;2247;42.666;23.292;2024-01-15T05:59:51;81.90;;;39.17;;
4468;SDS011;2247;42.666;23.292;2024-01-15T06:02:18;83.20;;;37.23;;
4468;SDS011;2247;42.666;23.292;2024-01-15T06:04:45;79.70;;;39.33;;
4468;SDS011;2247;42.666;23.292;2024-01-15T06:07:13;80.13;;;38.90;;
4468;SDS011;2247;42.666;23.292;2024-01-15T06:09:40;80.67;;;39.57;;
4468;SDS011;2247;42.666;23.292;2024-01-15T06:12:08;89.77;;;42.13;;
4468;SDS011;2247;42.666;23.292;2024-01-15T06:14:35;80.60;;;39.07;;
4468;SDS011;2247;42.666;23.292;2024-01-15T06:17:01;90.83;;;38.50;;
4468;SDS011;2247;42.666;23.292;2024-01-15T06:19:29;90.33;;;39.73;;
4468;SDS011;2247;42.666;23.292;2024-01-15T06:21:56;74.73;;;38.70;;
4468;SDS011;2247;42.666;23.292;2024-01-15T06:24:24;97.70;;;46.40;;
4468;SDS011;2247;42.666;23.292;2024-01-15T06:26:51;90.57;;;44.50;;
4468;SDS011;2247;42.666;23.292;2024-01-15T06:29:18;95.50;;;46.03;;
4468;SDS011;2247;42.666;23.292;2024-01-15T06:31:45;93.23;;;44.83;;
4468;SDS011;2247;42.666;23.292;2024-01-15T06:34:12;89.00;;;42.80;;
4468;SDS011;2247;42.666;23.292;2024-01-15T06:36:39;93.47;;;44.90;;
4468;SDS011;2247;42.666;23.292;2024-01-15T06:39:06;100.33;;;46.80;;
4468;SDS011;2247;42.666;23.292;2024-01-15T06:41:35;99.43;;;48.43;;
4468;SDS011;2247;42.666;23.292;2024-01-15T06:44:06;105.47;;;48.17;;
4468;SDS011;2247;42.666;23.292;2024-01-15T06:46:34;104.37;;;48.83;;
4468;SDS011;2247;42.666;23.292;2024-01-15T06:49:01;90.37;;;45.23;;
4468;SDS011;2247;42.666;23.292;2024-01-15T06:51:28;99.57;;;48.00;;
4468;SDS011;2247;42.666;23.292;2024-01-15T06:53:55;97.80;;;46.03;;
4468;SDS011;2247;42.666;23.292;2024-01-15T06:56:22;91.20;;;45.27;;
4468;SDS011;2247;42.666;23.292;2024-01-15T06:58:52;86.87;;;43.57;;
4468;SDS011;2247;42.666;23.292;2024-01-15T07:01:19;83.23;;;42.23;;
4468;SDS011;2247;42.666;23.292;2024-01-15T07:03:46;89.43;;;44.63;;
4468;SDS011;2247;42.666;23.292;2024-01-15T07:06:13;87.77;;;43.53;;
4468;SDS011;2247;42.666;23.292;2024-01-15T07:08:40;88.77;;;43.27;;
4468;SDS011;2247;42.666;23.292;2024-01-15T07:11:07;87.93;;;44.10;;
4468;SDS011;2247;42.666;23.292;2024-01-15T07:13:36;90.23;;;43.57;;
4468;SDS011;2247;42.666;23.292;2024-01-15T07:16:05;91.50;;;43.17;;
4468;SDS011;2247;42.666;23.292;2024-01-15T07:18:32;87.03;;;40.63;;
4468;SDS011;2247;42.666;23.292;2024-01-15T07:20:59;73.93;;;37.17;;
4468;SDS011;2247;42.666;23.292;2024-01-15T07:23:28;66.10;;;33.07;;
4468;SDS011;2247;42.666;23.292;2024-01-15T07:25:54;63.30;;;33.37;;
4468;SDS011;2247;42.666;23.292;2024-01-15T07:28:21;70.30;;;32.60;;
4468;SDS011;2247;42.666;23.292;2024-01-15T07:30:48;65.47;;;32.63;;
4468;SDS011;2247;42.666;23.292;2024-01-15T07:33:17;69.43;;;31.73;;
4468;SDS011;2247;42.666;23.292;2024-01-15T07:35:44;65.50;;;32.70;;
4468;SDS011;2247;42.666;23.292;2024-01-15T07:38:11;60.10;;;31.40;;
4468;SDS011;2247;42.666;23.292;2024-01-15T07:40:38;72.70;;;33.27;;
4468;SDS011;2247;42.666;23.292;2024-01-15T07:43:05;67.90;;;33.50;;
4468;SDS011;2247;42.666;23.292;2024-01-15T07:45:33;65.50;;;32.60;;
4468;SDS011;2247;42.666;23.292;2024-01-15T07:48:00;63.40;;;32.20;;
4468;SDS011;2247;42.666;23.292;2024-01-15T07:50:30;64.40;;;31.63;;
4468;SDS011;2247;42.666;23.292;2024-01-15T07:52:57;64.60;;;31.97;;
4468;SDS011;2247;42.666;23.292;2024-01-15T07:55:24;68.43;;;35.80;;
4468;SDS011;2247;42.666;23.292;2024-01-15T07:57:51;74.57;;;33.87;;
4468;SDS011;2247;42.666;23.292;2024-01-15T08:00:18;72.10;;;31.87;;
4468;SDS011;2247;42.666;23.292;2024-01-15T08:02:46;74.93;;;31.90;;
4468;SDS011;2247;42.666;23.292;2024-01-15T08:05:13;55.20;;;28.07;;
4468;SDS011;2247;42.666;23.292;2024-01-15T08:07:41;56.60;;;27.13;;
4468;SDS011;2247;42.666;23.292;2024-01-15T08:10:08;55.13;;;29.33;;
4468;SDS011;2247;42.666;23.292;2024-01-15T08:12:36;62.80;;;31.10;;
4468;SDS011;2247;42.666;23.292;2024-01-15T08:15:03;59.97;;;30.13;;
4468;SDS011;2247;42.666;23.292;2024-01-15T08:17:31;58.43;;;29.57;;
4468;SDS011;2247;42.666;23.292;2024-01-15T08:19:58;58.43;;;30.27;;
4468;SDS011;2247;42.666;23.292;2024-01-15T08:22:26;57.53;;;29.63;;
4468;SDS011;2247;42.666;23.292;2024-01-15T08:24:54;62.23;;;29.80;;
4468;SDS011;2247;42.666;23.292;2024-01-15T08:27:21;65.17;;;28.40;;
4468;SDS011;2247;42.666;23.292;2024-01-15T08:29:48;54.90;;;28.77;;
4468;SDS011;2247;42.666;23.292;2024-01-15T08:32:15;55.30;;;28.80;;
4468;SDS011;2247;42.666;23.292;2024-01-15T08:34:43;59.83;;;31.20;;
4468;SDS011;2247;42.666;23.292;2024-01-15T08:37:12;56.93;;;28.07;;
4468;SDS011;2247;42.666;23.292;2024-01-15T08:39:38;59.33;;;28.50;;
4468;SDS011;2247;42.666;23.292;2024-01-15T08:42:07;51.00;;;27.23;;
4468;SDS011;2247;42.666;23.292;2024-01-15T08:44:34;47.23;;;25.77;;
4468;SDS011;2247;42.666;23.292;2024-01-15T08:47:01;51.57;;;27.50;;
4468;SDS011;2247;42.666;23.292;2024-01-15T08:49:28;57.67;;;27.60;;
4468;SDS011;2247;42.666;23.292;2024-01-15T08:51:55;54.10;;;27.40;;
4468;SDS011;2247;42.666;23.292;2024-01-15T08:54:22;58.70;;;28.67;;
4468;SDS011;2247;42.666;23.292;2024-01-15T08:56:49;57.43;;;27.70;;
4468;SDS011;2247;42.666;23.292;2024-01-15T08:59:17;58.93;;;27.57;;
4468;SDS011;2247;42.666;23.292;2024-01-15T09:01:49;52.60;;;27.63;;
4468;SDS011;2247;42.666;23.292;2024-01-15T09:04:16;55.77;;;26.90;;
4468;SDS011;2247;42.666;23.292;2024-01-15T09:06:44;50.07;;;28.10;;
4468;SDS011;2247;42.666;23.292;2024-01-15T09:09:12;47.03;;;24.33;;
4468;SDS011;2247;42.666;23.292;2024-01-15T09:11:39;56.80;;;27.87;;
4468;SDS011;2247;42.666;23.292;2024-01-15T09:14:06;54.40;;;27.17;;
4468;SDS011;2247;42.666;23.292;2024-01-15T09:16:35;48.03;;;24.63;;
4468;SDS011;2247;42.666;23.292;2024-01-15T09:19:02;50.30;;;25.20;;
4468;SDS011;2247;42.666;23.292;2024-01-15T09:21:29;51.87;;;25.47;;
4468;SDS011;2247;42.666;23.292;2024-01-15T09:23:56;47.67;;;24.80;;
4468;SDS011;2247;42.666;23.292;2024-01-15T09:26:23;56.30;;;26.90;;
4468;SDS011;2247;42.666;23.292;2024-01-15T09:28:51;50.77;;;26.23;;
4468;SDS011;2247;42.666;23.292;2024-01-15T09:31:18;49.40;;;25.60;;
4468;SDS011;2247;42.666;23.292;2024-01-15T09:33:46;59.10;;;25.30;;
4468;SDS011;2247;42.666;23.292;2024-01-15T09:36:13;53.80;;;23.50;;
4468;SDS011;2247;42.666;23.292;2024-01-15T09:38:41;44.37;;;22.60;;
4468;SDS011;2247;42.666;23.292;2024-01-15T09:41:08;59.40;;;24.83;;
4468;SDS011;2247;42.666;23.292;2024-01-15T09:43:35;54.23;;;25.70;;
4468;SDS011;2247;42.666;23.292;2024-01-15T09:46:03;57.90;;;28.30;;
4468;SDS011;2247;42.666;23.292;2024-01-15T09:48:30;60.30;;;27.63;;
4468;SDS011;2247;42.666;23.292;2024-01-15T09:51:01;61.07;;;27.53;;
4468;SDS011;2247;42.666;23.292;2024-01-15T09:53:28;64.03;;;31.57;;
4468;SDS011;2247;42.666;23.292;2024-01-15T09:55:55;71.80;;;34.63;;
4468;SDS011;2247;42.666;23.292;2024-01-15T09:58:23;90.00;;;37.03;;
4468;SDS011;2247;42.666;23.292;2024-01-15T10:00:50;79.07;;;37.63;;
4468;SDS011;2247;42.666;23.292;2024-01-15T10:03:18;72.93;;;33.80;;
4468;SDS011;2247;42.666;23.292;2024-01-15T10:05:46;74.27;;;36.10;;
4468;SDS011;2247;42.666;23.292;2024-01-15T10:08:15;73.07;;;36.43;;
4468;SDS011;2247;42.666;23.292;2024-01-15T10:10:43;86.60;;;40.57;;
4468;SDS011;2247;42.666;23.292;2024-01-15T10:13:10;86.67;;;41.00;;
4468;SDS011;2247;42.666;23.292;2024-01-15T10:15:39;90.03;;;43.20;;
4468;SDS011;2247;42.666;23.292;2024-01-15T10:18:08;90.57;;;44.60;;
4468;SDS011;2247;42.666;23.292;2024-01-15T10:20:36;92.50;;;47.30;;
4468;SDS011;2247;42.666;23.292;2024-01-15T10:23:03;93.87;;;45.97;;
4468;SDS011;2247;42.666;23.292;2024-01-15T10:25:32;65.13;;;33.23;;
4468;SDS011;2247;42.666;23.292;2024-01-15T10:28:01;67.00;;;34.90;;
4468;SDS011;2247;42.666;23.292;2024-01-15T10:30:29;74.93;;;38.23;;
4468;SDS011;2247;42.666;23.292;2024-01-15T10:32:57;64.10;;;31.30;;
4468;SDS011;2247;42.666;23.292;2024-01-15T10:35:26;66.90;;;34.43;;
4468;SDS011;2247;42.666;23.292;2024-01-15T10:37:56;58.77;;;30.20;;
4468;SDS011;2247;42.666;23.292;2024-01-15T10:40:23;71.10;;;36.30;;
4468;SDS011;2247;42.666;23.292;2024-01-15T10:42:51;75.33;;;39.07;;
4468;SDS011;2247;42.666;23.292;2024-01-15T10:45:18;78.40;;;37.27;;
4468;SDS011;2247;42.666;23.292;2024-01-15T10:47:45;66.10;;;33.50;;
4468;SDS011;2247;42.666;23.292;2024-01-15T10:50:13;54.30;;;30.73;;
4468;SDS011;2247;42.666;23.292;2024-01-15T10:52:41;55.07;;;30.37;;
4468;SDS011;2247;42.666;23.292;2024-01-15T10:55:09;58.90;;;30.30;;
4468;SDS011;2247;42.666;23.292;2024-01-15T10:57:37;63.00;;;31.87;;
4468;SDS011;2247;42.666;23.292;2024-01-15T11:00:06;56.73;;;30.30;;
4468;SDS011;2247;42.666;23.292;2024-01-15T11:02:40;62.87;;;31.83;;
4468;SDS011;2247;42.666;23.292;2024-01-15T11:05:10;68.33;;;31.40;;
4468;SDS011;2247;42.666;23.292;2024-01-15T11:07:38;55.43;;;29.10;;
4468;SDS011;2247;42.666;23.292;2024-01-15T11:10:06;49.30;;;26.07;;
4468;SDS011;2247;42.666;23.292;2024-01-15T11:12:35;58.43;;;27.43;;
4468;SDS011;2247;42.666;23.292;2024-01-15T11:15:03;48.73;;;25.10;;
4468;SDS011;2247;42.666;23.292;2024-01-15T11:20:28;54.33;;;29.07;;
4468;SDS011;2247;42.666;23.292;2024-01-15T11:22:56;44.77;;;22.60;;
4468;SDS011;2247;42.666;23.292;2024-01-15T11:25:24;42.47;;;20.73;;
4468;SDS011;2247;42.666;23.292;2024-01-15T11:28:03;50.33;;;24.83;;
4468;SDS011;2247;42.666;23.292;2024-01-15T11:30:31;34.67;;;18.87;;
4468;SDS011;2247;42.666;23.292;2024-01-15T11:33:03;40.20;;;20.97;;
4468;SDS011;2247;42.666;23.292;2024-01-15T11:38:26;40.63;;;23.00;;
4468;SDS011;2247;42.666;23.292;2024-01-15T11:40:54;47.40;;;23.87;;
4468;SDS011;2247;42.666;23.292;2024-01-15T11:43:23;42.13;;;22.73;;
4468;SDS011;2247;42.666;23.292;2024-01-15T11:45:50;43.33;;;22.10;;
4468;SDS011;2247;42.666;23.292;2024-01-15T11:48:20;45.53;;;23.63;;
4468;SDS011;2247;42.666;23.292;2024-01-15T11:50:49;43.73;;;22.90;;
4468;SDS011;2247;42.666;23.292;2024-01-15T11:53:18;53.80;;;24.07;;
4468;SDS011;2247;42.666;23.292;2024-01-15T11:55:53;51.83;;;22.33;;
4468;SDS011;2247;42.666;23.292;2024-01-15T11:58:25;44.50;;;22.83;;
4468;SDS011;2247;42.666;23.292;2024-01-15T12:00:52;42.30;;;23.53;;
4468;SDS011;2247;42.666;23.292;2024-01-15T12:03:22;48.83;;;24.13;;
4468;SDS011;2247;42.666;23.292;2024-01-15T12:05:49;42.20;;;22.93;;
4468;SDS011;2247;42.666;23.292;2024-01-15T12:08:20;52.40;;;22.83;;
4468;SDS011;2247;42.666;23.292;2024-01-15T12:10:47;66.37;;;24.20;;
4468;SDS011;2247;42.666;23.292;2024-01-15T12:13:15;41.80;;;21.30;;
4468;SDS011;2247;42.666;23.292;2024-01-15T12:15:43;43.13;;;19.50;;
4468;SDS011;2247;42.666;23.292;2024-01-15T12:18:12;34.63;;;19.60;;
4468;SDS011;2247;42.666;23.292;2024-01-15T12:20:42;40.87;;;21.10;;
4468;SDS011;2247;42.666;23.292;2024-01-15T12:23:11;39.43;;;19.87;;
4468;SDS011;2247;42.666;23.292;2024-01-15T12:25:39;45.90;;;21.97;;
4468;SDS011;2247;42.666;23.292;2024-01-15T12:28:06;41.70;;;21.43;;
4468;SDS011;2247;42.666;23.292;2024-01-15T12:30:33;44.57;;;21.60;;
4468;SDS011;2247;42.666;23.292;2024-01-15T12:33:02;39.90;;;20.00;;
4468;SDS011;2247;42.666;23.292;2024-01-15T12:35:30;43.03;;;20.53;;
4468;SDS011;2247;42.666;23.292;2024-01-15T12:37:59;41.63;;;22.10;;
4468;SDS011;2247;42.666;23.292;2024-01-15T12:40:27;35.67;;;19.70;;
4468;SDS011;2247;42.666;23.292;2024-01-15T12:42:54;38.30;;;18.40;;
4468;SDS011;2247;42.666;23.292;2024-01-15T12:45:21;36.43;;;20.00;;
4468;SDS011;2247;42.666;23.292;2024-01-15T12:47:48;42.10;;;23.63;;
4468;SDS011;2247;42.666;23.292;2024-01-15T12:50:16;45.83;;;23.60;;
4468;SDS011;2247;42.666;23.292;2024-01-15T12:52:43;26.87;;;12.40;;
4468;SDS011;2247;42.666;23.292;2024-01-15T12:55:12;38.70;;;19.87;;
4468;SDS011;2247;42.666;23.292;2024-01-15T12:57:39;43.10;;;19.63;;
4468;SDS011;2247;42.666;23.292;2024-01-15T13:00:07;36.57;;;18.63;;
4468;SDS011;2247;42.666;23.292;2024-01-15T13:02:37;37.03;;;19.27;;
4468;SDS011;2247;42.666;23.292;2024-01-15T13:05:07;43.83;;;18.80;;
4468;SDS011;2247;42.666;23.292;2024-01-15T13:07:36;26.10;;;16.30;;
4468;SDS011;2247;42.666;23.292;2024-01-15T13:10:03;30.00;;;16.00;;
4468;SDS011;2247;42.666;23.292;2024-01-15T13:12:32;31.30;;;16.20;;
4468;SDS011;2247;42.666;23.292;2024-01-15T13:15:00;32.37;;;16.33;;
4468;SDS011;2247;42.666;23.292;2024-01-15T13:17:28;32.63;;;15.93;;
4468;SDS011;2247;42.666;23.292;2024-01-15T13:19:55;33.03;;;16.07;;
4468;SDS011;2247;42.666;23.292;2024-01-15T13:22:22;31.60;;;17.33;;
4468;SDS011;2247;42.666;23.292;2024-01-15T13:24:54;31.73;;;18.00;;
4468;SDS011;2247;42.666;23.292;2024-01-15T13:27:21;41.60;;;19.70;;
4468;SDS011;2247;42.666;23.292;2024-01-15T13:29:50;42.90;;;20.10;;
4468;SDS011;2247;42.666;23.292;2024-01-15T13:32:17;48.80;;;20.40;;
4468;SDS011;2247;42.666;23.292;2024-01-15T13:34:51;53.77;;;23.50;;
4468;SDS011;2247;42.666;23.292;2024-01-15T13:37:18;41.53;;;21.83;;
4468;SDS011;2247;42.666;23.292;2024-01-15T13:39:45;41.23;;;23.43;;
4468;SDS011;2247;42.666;23.292;2024-01-15T13:42:13;45.23;;;23.37;;
4468;SDS011;2247;42.666;23.292;2024-01-15T13:44:40;45.17;;;23.03;;
4468;SDS011;2247;42.666;23.292;2024-01-15T13:47:11;47.73;;;22.30;;
4468;SDS011;2247;42.666;23.292;2024-01-15T13:49:38;43.10;;;22.00;;
4468;SDS011;2247;42.666;23.292;2024-01-15T13:52:05;39.50;;;22.10;;
4468;SDS011;2247;42.666;23.292;2024-01-15T13:54:33;52.30;;;21.93;;
4468;SDS011;2247;42.666;23.292;2024-01-15T13:57:00;40.27;;;22.07;;
4468;SDS011;2247;42.666;23.292;2024-01-15T13:59:27;46.47;;;21.40;;
4468;SDS011;2247;42.666;23.292;2024-01-15T14:01:54;41.33;;;21.50;;
4468;SDS011;2247;42.666;23.292;2024-01-15T14:04:23;39.17;;;20.43;;
4468;SDS011;2247;42.666;23.292;2024-01-15T14:06:50;44.40;;;22.23;;
4468;SDS011;2247;42.666;23.292;2024-01-15T14:09:17;46.50;;;22.00;;
4468;SDS011;2247;42.666;23.292;2024-01-15T14:11:44;38.47;;;21.93;;
4468;SDS011;2247;42.666;23.292;2024-01-15T14:14:11;43.07;;;20.97;;
4468;SDS011;2247;42.666;23.292;2024-01-15T14:16:38;44.90;;;21.93;;
4468;SDS011;2247;42.666;23.292;2024-01-15T14:19:05;42.13;;;21.83;;
4468;SDS011;2247;42.666;23.292;2024-01-15T14:21:36;39.57;;;21.17;;
4468;SDS011;2247;42.666;23.292;2024-01-15T14:24:03;39.87;;;20.70;;
4468;SDS011;2247;42.666;23.292;2024-01-15T14:26:31;35.83;;;21.70;;
4468;SDS011;2247;42.666;23.292;2024-01-15T14:28:58;45.30;;;21.47;;
4468;SDS011;2247;42.666;23.292;2024-01-15T14:31:25;41.30;;;21.93;;
4468;SDS011;2247;42.666;23.292;2024-01-15T14:33:53;42.60;;;22.20;;
4468;SDS011;2247;42.666;23.292;2024-01-15T14:36:21;40.50;;;21.13;;
4468;SDS011;2247;42.666;23.292;2024-01-15T14:38:49;40.87;;;21.60;;
4468;SDS011;2247;42.666;23.292;2024-01-15T14:41:16;53.50;;;23.80;;